Time;durP1;ratioP1;P1;durP2;ratioP2;P2;SDS_P1;SDS_P2;PMS_P1;PMS_P2;Temp;Humidity;BMP_temperature;BMP_pressure;BME280_temperature;BME280_humidity;BME280_pressure;Samples;Min_cycle;Max_cycle;Signal;HPM_P1;HPM_P2
2023/12/11 00:00:15;;;;;;;40.20;17.93;;;;;;;7.65;72.60;100843.84;5078329;28;20051;-82
2023/12/11 00:03:05;;;;;;;38.95;23.77;;;;;;;7.42;72.58;100842.00;5081303;28;20055;-81
2023/12/11 00:05:57;;;;;;;47.42;24.92;;;;;;;7.40;74.56;100809.03;5080576;28;20071;-83
2023/12/11 00:08:47;;;;;;;32.60;19.20;;;;;;;7.72;72.44;100794.75;5077232;28;20047;-82
2023/12/11 00:11:41;;;;;;;43.08;22.13;;;;;;;7.70;71.34;100789.66;5081325;28;20130;-82
2023/12/11 00:14:36;;;;;;;36.40;18.50;;;;;;;7.61;72.94;100796.84;5078991;28;20047;-82
2023/12/11 00:17:27;;;;;;;49.35;23.38;;;;;;;7.60;71.21;100800.63;5082154;28;20039;-82
2023/12/11 00:20:22;;;;;;;46.50;22.13;;;;;;;7.60;73.16;100791.72;5079579;28;20043;-82
2023/12/11 00:23:16;;;;;;;40.30;21.85;;;;;;;7.42;73.57;100798.72;5077718;28;20111;-82
2023/12/11 00:26:11;;;;;;;44.50;23.07;;;;;;;7.26;73.45;100811.63;5081901;28;20043;-82
2023/12/11 00:29:06;;;;;;;41.30;21.30;;;;;;;7.52;72.50;100797.75;5079196;28;20270;-81
2023/12/11 00:31:58;;;;;;;35.55;21.40;;;;;;;7.52;72.88;100795.88;5082547;28;20525;-83
2023/12/11 00:34:53;;;;;;;37.47;21.77;;;;;;;7.76;71.43;100832.88;5080566;28;20048;-83
2023/12/11 00:37:47;;;;;;;41.73;23.03;;;;;;;7.50;72.77;100838.66;5078256;28;20067;-83
2023/12/11 00:40:39;;;;;;;35.85;20.20;;;;;;;7.69;71.66;100842.16;5081946;28;20075;-82
2023/12/11 00:43:33;;;;;;;40.10;21.52;;;;;;;7.82;70.87;100839.84;5079830;28;20043;-83
2023/12/11 00:46:24;;;;;;;39.55;18.75;;;;;;;7.69;70.85;100849.47;5081978;28;20521;-82
2023/12/11 00:49:19;;;;;;;50.88;26.98;;;;;;;7.67;71.95;100838.94;5079514;28;20418;-82
2023/12/11 00:52:13;;;;;;;32.83;16.27;;;;;;;7.51;71.41;100829.47;5077129;28;20071;-83
2023/12/11 00:55:08;;;;;;;33.03;14.97;;;;;;;6.87;72.17;100824.56;5081084;28;20640;-82
2023/12/11 00:57:58;;;;;;;35.33;18.65;;;;;;;6.89;73.60;100817.00;5078523;28;20052;-83
2023/12/11 01:00:53;;;;;;;31.35;17.58;;;;;;;7.04;73.62;100813.28;5076548;28;20063;-82
2023/12/11 01:03:47;;;;;;;39.47;31.33;;;;;;;6.87;73.63;100794.84;5077071;28;20409;-83
2023/12/11 01:06:42;;;;;;;37.80;21.52;;;;;;;6.77;76.07;100787.66;5076858;28;20274;-83
2023/12/11 01:09:36;;;;;;;42.92;21.08;;;;;;;7.19;74.33;100786.06;5080979;28;20532;-81
2023/12/11 01:12:34;;;;;;;34.75;15.02;;;;;;;7.40;72.89;100783.88;5078246;28;20043;-83
2023/12/11 01:15:26;;;;;;;27.92;17.55;;;;;;;6.89;72.97;100784.56;5075824;28;20039;-82
2023/12/11 01:18:18;;;;;;;32.13;18.13;;;;;;;6.99;75.88;100789.84;5080072;28;20043;-82
2023/12/11 01:21:13;;;;;;;28.60;15.30;;;;;;;7.23;73.82;100778.97;5077707;28;20051;-82
2023/12/11 01:24:08;;;;;;;33.55;17.50;;;;;;;7.09;73.51;100761.84;5076762;28;20056;-82
2023/12/11 01:27:00;;;;;;;24.38;12.27;;;;;;;6.59;73.85;100758.69;5078663;28;20047;-82
2023/12/11 01:29:57;;;;;;;33.22;18.08;;;;;;;6.70;75.47;100764.78;5077392;28;20047;-82
2023/12/11 01:32:52;;;;;;;34.58;18.88;;;;;;;7.17;74.67;100766.59;5080343;28;20536;-82
2023/12/11 01:35:49;;;;;;;32.30;17.60;;;;;;;6.75;75.42;100779.06;5077835;28;20047;-82
2023/12/11 01:38:38;;;;;;;31.08;17.80;;;;;;;6.79;75.15;100777.38;5081572;28;20048;-82
2023/12/11 01:41:25;;;;;;;34.03;18.52;;;;;;;6.82;73.63;100759.75;5079740;28;20051;-82
2023/12/11 01:44:20;;;;;;;24.00;16.83;;;;;;;6.94;74.64;100773.69;5076245;28;20056;-82
2023/12/11 01:47:12;;;;;;;27.13;17.50;;;;;;;6.77;74.58;100790.34;5080075;28;20044;-83
2023/12/11 01:50:04;;;;;;;30.95;17.30;;;;;;;6.87;74.83;100787.53;5077581;28;20270;-82
2023/12/11 01:52:59;;;;;;;39.67;18.50;;;;;;;6.70;75.21;100792.63;5075974;28;20039;-82
2023/12/11 01:55:54;;;;;;;35.08;18.70;;;;;;;7.03;74.95;100771.13;5079119;28;20063;-83
2023/12/11 01:58:49;;;;;;;33.08;18.25;;;;;;;7.27;73.72;100748.34;5076216;28;20039;-83
2023/12/11 02:01:41;;;;;;;30.13;14.57;;;;;;;7.49;72.35;100725.31;5079526;28;20044;-81
2023/12/11 02:04:34;;;;;;;33.88;17.65;;;;;;;7.69;72.06;100722.28;5077701;28;20063;-82
2023/12/11 02:07:26;;;;;;;38.08;19.52;;;;;;;7.46;72.40;100706.97;5075322;28;20052;-82
2023/12/11 02:10:17;;;;;;;34.60;18.60;;;;;;;7.41;72.07;100709.75;5077521;28;20047;-82
2023/12/11 02:13:12;;;;;;;36.95;19.30;;;;;;;7.58;72.94;100732.47;5077163;28;20055;-82
2023/12/11 02:16:07;;;;;;;38.70;19.48;;;;;;;7.53;71.97;100732.53;5080186;28;20528;-82
2023/12/11 02:19:01;;;;;;;32.00;18.80;;;;;;;7.58;72.92;100754.09;5077681;28;20047;-81
2023/12/11 02:21:56;;;;;;;38.83;19.47;;;;;;;7.30;73.65;100771.31;5076527;28;20051;-82
2023/12/11 02:25:01;;;;;;;35.03;19.40;;;;;;;7.24;74.33;100769.78;5080135;28;20524;-83
2023/12/11 02:27:53;;;;;;;36.08;19.23;;;;;;;7.09;74.32;100781.59;5076570;28;20048;-82
2023/12/11 02:30:53;;;;;;;31.75;20.27;;;;;;;7.02;75.06;100778.44;5079916;28;20048;-82
2023/12/11 02:33:45;;;;;;;33.63;19.95;;;;;;;7.01;74.08;100773.34;5076466;28;20047;-81
2023/12/11 02:36:37;;;;;;;32.20;21.55;;;;;;;6.99;74.51;100757.41;5076616;28;20063;-82
2023/12/11 02:39:32;;;;;;;31.75;19.85;;;;;;;6.89;76.06;100752.13;5082469;28;20052;-81
2023/12/11 02:42:26;;;;;;;25.15;13.48;;;;;;;7.05;75.43;100739.22;5081344;28;20047;-82
2023/12/11 02:45:19;;;;;;;33.17;18.50;;;;;;;7.20;73.52;100714.66;5085081;28;20047;-82
2023/12/11 02:48:13;;;;;;;28.35;18.17;;;;;;;7.38;73.23;100705.72;5082108;28;20044;-82
2023/12/11 02:51:05;;;;;;;25.23;14.77;;;;;;;7.42;72.38;100712.16;5080728;28;20043;-82
2023/12/11 02:53:53;;;;;;;28.65;17.15;;;;;;;7.38;72.72;100711.13;5080113;28;20039;-81
2023/12/11 02:56:47;;;;;;;32.97;17.40;;;;;;;6.75;72.37;100714.19;5081844;28;20107;-83
2023/12/11 02:59:42;;;;;;;25.67;13.77;;;;;;;6.42;72.63;100701.63;5078845;28;20048;-82
2023/12/11 03:02:34;;;;;;;28.25;17.83;;;;;;;6.60;74.33;100690.06;5083186;28;20417;-81
2023/12/11 03:05:28;;;;;;;26.00;16.15;;;;;;;6.76;73.31;100667.13;5080605;28;20051;-81
2023/12/11 03:08:23;;;;;;;25.75;17.10;;;;;;;6.60;73.68;100657.66;5084311;28;20055;-82
2023/12/11 03:11:15;;;;;;;20.88;13.63;;;;;;;6.87;72.08;100638.88;5079555;28;20051;-83
2023/12/11 03:14:10;;;;;;;23.05;15.80;;;;;;;7.05;70.83;100633.78;5079315;28;20044;-82
2023/12/11 03:17:04;;;;;;;24.13;15.63;;;;;;;7.23;70.68;100627.53;5083339;28;20051;-81
2023/12/11 03:19:59;;;;;;;18.10;12.73;;;;;;;7.47;69.50;100628.19;5080234;28;20063;-83
2023/12/11 03:22:54;;;;;;;19.43;12.50;;;;;;;7.55;68.25;100651.88;5082765;28;20047;-82
2023/12/11 03:25:45;;;;;;;23.73;15.63;;;;;;;7.06;68.90;100643.50;5081920;28;20297;-82
2023/12/11 03:28:43;;;;;;;22.15;14.27;;;;;;;7.12;69.97;100642.28;5078938;28;20043;-83
2023/12/11 03:31:37;;;;;;;24.73;15.55;;;;;;;7.00;70.15;100629.25;5082350;28;20052;-82
2023/12/11 03:34:32;;;;;;;20.97;14.77;;;;;;;7.07;68.97;100612.63;5079746;28;20052;-83
2023/12/11 03:37:27;;;;;;;18.70;12.90;;;;;;;7.14;68.20;100629.31;5082884;28;20513;-82
2023/12/11 03:40:19;;;;;;;18.63;11.50;;;;;;;7.28;68.02;100633.66;5079660;28;20050;-83
2023/12/11 03:43:11;;;;;;;23.38;14.80;;;;;;;7.10;67.18;100628.28;5078371;28;20074;-82
2023/12/11 03:46:03;;;;;;;20.85;14.25;;;;;;;6.95;68.25;100637.44;5081891;28;20059;-82
2023/12/11 03:48:57;;;;;;;23.73;15.32;;;;;;;7.22;68.77;100653.75;5079074;28;20043;-83
2023/12/11 03:51:52;;;;;;;19.38;14.23;;;;;;;6.94;68.79;100659.34;5082267;28;20081;-83
2023/12/11 03:54:46;;;;;;;16.13;9.80;;;;;;;6.59;68.64;100666.84;5080389;28;20044;-83
2023/12/11 03:57:38;;;;;;;17.87;10.43;;;;;;;6.39;69.73;100645.47;5077795;28;20051;-82
2023/12/11 04:00:33;;;;;;;27.30;15.02;;;;;;;6.06;71.12;100614.81;5081673;28;20277;-83
2023/12/11 04:03:28;;;;;;;33.77;15.00;;;;;;;6.02;72.81;100621.88;5079671;28;20055;-83
2023/12/11 04:06:22;;;;;;;46.83;18.08;;;;;;;5.55;75.41;100603.72;5079195;28;20821;-82
2023/12/11 04:09:17;;;;;;;38.05;19.67;;;;;;;5.83;76.06;100620.97;5081543;28;20051;-82
2023/12/11 04:12:15;;;;;;;22.53;14.03;;;;;;;5.73;75.90;100607.59;5079835;28;20402;-82
2023/12/11 04:15:10;;;;;;;49.97;19.40;;;;;;;5.67;76.36;100625.72;5082904;28;20121;-82
2023/12/11 04:17:58;;;;;;;;;;;;;;;5.68;76.83;100645.41;5080669;28;20043;-83
2023/12/11 04:20:52;;;;;;;56.63;16.98;;;;;;;5.62;77.38;100668.13;5078012;28;19912;-83
2023/12/11 04:23:39;;;;;;;35.40;13.47;;;;;;;5.20;78.29;100647.97;5078957;28;20401;-83
2023/12/11 04:26:31;;;;;;;34.53;16.90;;;;;;;5.07;79.56;100630.56;5078540;28;20425;-81
2023/12/11 04:29:26;;;;;;;50.28;18.20;;;;;;;4.98;79.93;100621.44;5082346;28;20414;-82
2023/12/11 04:32:19;;;;;;;21.15;12.02;;;;;;;5.23;79.14;100625.06;5081071;28;20075;-82
2023/12/11 04:35:13;;;;;;;47.05;16.23;;;;;;;4.93;79.70;100634.13;5076735;28;20513;-81
2023/12/11 04:38:06;;;;;;;22.70;13.50;;;;;;;5.10;80.25;100635.38;5081330;28;20052;-83
2023/12/11 04:41:00;;;;;;;35.50;17.23;;;;;;;5.06;79.23;100637.03;5079141;28;20060;-82
2023/12/11 04:43:54;;;;;;;33.63;16.10;;;;;;;5.00;79.07;100657.00;5076362;28;20047;-82
2023/12/11 04:46:49;;;;;;;28.88;15.73;;;;;;;5.10;78.63;100669.59;5080354;28;20039;-82
2023/12/11 04:49:43;;;;;;;31.73;16.52;;;;;;;5.06;77.77;100693.63;5077812;28;20413;-82
2023/12/11 04:52:38;;;;;;;25.52;15.70;;;;;;;5.01;78.39;100699.03;5081191;28;20059;-83
2023/12/11 04:55:32;;;;;;;22.55;11.73;;;;;;;5.11;78.00;100696.28;5079168;28;20059;-82
2023/12/11 04:58:27;;;;;;;16.90;11.07;;;;;;;5.28;77.16;100684.31;5076657;28;20397;-82
2023/12/11 05:01:21;;;;;;;22.30;14.25;;;;;;;5.16;76.36;100692.75;5081162;28;20111;-83
2023/12/11 05:04:16;;;;;;;16.80;10.80;;;;;;;5.38;77.38;100700.41;5077664;28;20086;-82
2023/12/11 05:07:11;;;;;;;14.57;9.90;;;;;;;5.59;76.47;100726.13;5080952;28;20056;-83
2023/12/11 05:10:05;;;;;;;19.88;9.82;;;;;;;5.58;75.18;100717.25;5072141;28;20043;-83
2023/12/11 05:13:00;;;;;;;22.13;10.98;;;;;;;5.39;74.31;100719.00;5077762;28;20516;-82
2023/12/11 05:15:54;;;;;;;20.05;9.88;;;;;;;5.34;75.47;100743.28;5075138;28;20070;-82
2023/12/11 05:18:49;;;;;;;22.50;13.98;;;;;;;5.41;75.57;100756.47;5082354;28;20039;-83
2023/12/11 05:21:46;;;;;;;31.05;14.60;;;;;;;5.67;73.23;100740.91;5077221;28;20047;-83
2023/12/11 05:24:41;;;;;;;19.83;12.65;;;;;;;5.86;73.60;100739.94;5073802;28;20047;-85
2023/12/11 05:27:36;;;;;;;15.30;10.57;;;;;;;5.93;72.35;100729.66;5077599;28;20035;-84
2023/12/11 05:30:30;;;;;;;18.45;12.43;;;;;;;6.00;72.07;100730.13;5081803;28;20044;-85
2023/12/11 05:33:25;;;;;;;18.67;12.90;;;;;;;5.81;72.02;100726.50;5079139;28;20532;-85
2023/12/11 05:36:17;;;;;;;16.98;11.77;;;;;;;5.47;73.11;100725.69;5100607;28;20047;-85
2023/12/11 05:39:11;;;;;;;21.27;12.05;;;;;;;5.30;73.36;100726.06;5102767;28;20063;-82
2023/12/11 05:42:03;;;;;;;15.67;9.20;;;;;;;5.28;73.74;100713.97;5093183;28;20059;-86
2023/12/11 05:44:58;;;;;;;16.80;11.95;;;;;;;5.29;73.86;100705.56;5083791;28;20048;-83
2023/12/11 05:47:53;;;;;;;12.80;8.97;;;;;;;5.23;74.06;100697.84;5083028;28;20406;-85
2023/12/11 05:50:47;;;;;;;13.38;9.05;;;;;;;5.33;73.30;100708.53;5084093;28;20047;-85
2023/12/11 05:53:39;;;;;;;16.60;10.88;;;;;;;5.44;72.91;100683.09;5080099;28;20048;-84
2023/12/11 05:56:34;;;;;;;15.98;11.88;;;;;;;5.31;73.26;100672.97;5083728;28;20052;-85
2023/12/11 05:59:28;;;;;;;17.80;12.25;;;;;;;5.41;73.83;100678.28;5083390;28;20516;-85
2023/12/11 06:02:23;;;;;;;13.77;9.10;;;;;;;5.76;72.71;100669.06;5081998;28;20043;-84
2023/12/11 06:05:18;;;;;;;13.83;9.30;;;;;;;5.87;71.61;100674.13;5079889;28;20043;-84
2023/12/11 06:08:12;;;;;;;17.20;13.05;;;;;;;6.05;71.36;100651.00;5076669;28;20774;-86
2023/12/11 06:11:07;;;;;;;11.68;8.35;;;;;;;6.05;70.72;100642.09;5069233;28;20063;-85
2023/12/11 06:13:57;;;;;;;13.38;10.95;;;;;;;5.46;72.70;100629.69;5083550;28;20055;-85
2023/12/11 06:16:49;;;;;;;15.35;11.98;;;;;;;5.65;73.65;100619.81;5088516;28;20048;-84
2023/12/11 06:19:47;;;;;;;17.02;12.05;;;;;;;5.84;72.56;100639.56;5082777;28;20044;-84
2023/12/11 06:22:42;;;;;;;21.23;13.57;;;;;;;5.98;72.01;100653.25;5088427;28;20052;-84
2023/12/11 06:25:34;;;;;;;14.85;9.73;;;;;;;6.06;72.66;100670.69;5090691;28;20409;-83
2023/12/11 06:28:26;;;;;;;19.60;13.07;;;;;;;6.03;72.71;100671.28;5085631;28;20047;-84
2023/12/11 06:31:21;;;;;;;23.13;13.05;;;;;;;5.91;73.53;100652.75;5078429;28;20043;-84
2023/12/11 06:34:16;;;;;;;22.40;12.10;;;;;;;5.80;74.45;100659.31;5083027;28;20055;-84
2023/12/11 06:37:10;;;;;;;36.85;16.15;;;;;;;5.49;76.32;100688.44;5087192;28;20115;-84
2023/12/11 06:40:05;;;;;;;26.52;15.57;;;;;;;5.37;77.95;100679.94;5087912;28;20047;-83
2023/12/11 06:43:00;;;;;;;24.13;12.82;;;;;;;5.24;79.11;100672.47;5085653;28;20527;-83
2023/12/11 06:45:55;;;;;;;28.87;14.57;;;;;;;5.35;80.52;100668.59;5084918;28;20043;-83
2023/12/11 06:48:47;;;;;;;48.10;19.05;;;;;;;5.43;80.06;100678.81;5088653;28;20047;-84
2023/12/11 06:51:41;;;;;;;42.92;19.58;;;;;;;5.32;80.26;100682.66;5086523;28;20409;-84
2023/12/11 06:54:36;;;;;;;28.57;13.83;;;;;;;5.16;81.01;100692.75;5063470;28;20060;-84
2023/12/11 06:57:31;;;;;;;29.60;17.30;;;;;;;5.01;81.82;100703.63;5067303;28;20079;-84
2023/12/11 07:00:24;;;;;;;47.22;18.20;;;;;;;5.26;82.41;100708.03;5064931;28;20052;-83
2023/12/11 07:03:17;;;;;;;31.10;15.50;;;;;;;5.29;81.74;100675.94;5066897;28;20047;-83
2023/12/11 07:06:12;;;;;;;36.38;16.58;;;;;;;5.33;81.82;100670.81;5085828;28;20051;-84
2023/12/11 07:09:05;;;;;;;;;;;;;;;5.30;81.10;100679.44;5083721;28;20398;-83
2023/12/11 07:11:57;;;;;;;32.90;14.75;;;;;;;5.42;81.13;100658.31;5087681;28;19916;-83
2023/12/11 07:14:49;;;;;;;33.83;18.02;;;;;;;5.32;80.76;100653.00;5083124;28;20060;-83
2023/12/11 07:17:43;;;;;;;35.78;16.52;;;;;;;5.50;79.30;100641.53;5080506;28;20071;-83
2023/12/11 07:20:38;;;;;;;35.30;13.03;;;;;;;5.48;79.52;100658.00;5085472;28;20047;-83
2023/12/11 07:23:30;;;;;;;31.75;17.35;;;;;;;5.58;79.07;100662.50;5084341;28;20270;-83
2023/12/11 07:26:24;;;;;;;22.00;15.20;;;;;;;5.57;78.28;100661.69;5081982;28;20052;-83
2023/12/11 07:29:19;;;;;;;24.90;12.30;;;;;;;5.67;77.90;100651.91;5073924;28;20075;-80
2023/12/11 07:32:14;;;;;;;29.60;19.25;;;;;;;5.66;78.18;100656.47;5078698;28;20282;-80
2023/12/11 07:35:10;;;;;;;24.40;13.17;;;;;;;5.71;78.29;100659.13;5079069;28;20409;-80
2023/12/11 07:38:02;;;;;;;;;;;;;;;5.86;77.45;100660.88;5076034;28;20378;-80
2023/12/11 07:40:54;;;;;;;27.77;17.58;;;;;;;5.77;78.31;100660.69;5076390;28;19912;-80
2023/12/11 07:43:47;;;;;;;29.08;17.00;;;;;;;5.69;78.64;100661.28;5077418;28;20047;-81
2023/12/11 07:46:41;;;;;;;28.15;15.90;;;;;;;5.88;80.46;100664.94;5071235;28;20048;-81
2023/12/11 07:49:33;;;;;;;26.40;15.88;;;;;;;5.74;77.84;100663.16;5079342;28;20047;-81
2023/12/11 07:52:29;;;;;;;31.55;13.68;;;;;;;5.83;77.00;100656.88;5078764;28;20046;-82
2023/12/11 07:55:21;;;;;;;22.92;14.48;;;;;;;5.61;75.81;100653.84;5067204;28;20051;-80
2023/12/11 07:58:16;;;;;;;19.63;12.73;;;;;;;6.25;76.55;100660.75;5073039;28;20064;-80
2023/12/11 08:01:11;;;;;;;21.33;9.23;;;;;;;6.72;80.14;100666.13;5079377;28;20044;-80
2023/12/11 08:04:05;;;;;;;18.90;10.43;;;;;;;7.32;75.31;100660.91;5086403;28;20044;-80
2023/12/11 08:07:00;;;;;;;22.52;13.32;;;;;;;7.49;73.20;100636.84;5094770;28;20273;-80
2023/12/11 08:09:54;;;;;;;25.05;12.90;;;;;;;7.38;72.04;100602.94;5084393;28;20056;-80
2023/12/11 08:12:56;;;;;;;17.60;11.30;;;;;;;7.67;69.28;100605.38;5083745;28;20051;-80
2023/12/11 08:15:50;;;;;;;23.55;14.00;;;;;;;7.66;69.99;100599.22;5078655;28;20047;-82
2023/12/11 08:18:48;;;;;;;23.27;15.35;;;;;;;6.81;70.10;100598.69;5076578;28;20051;-81
2023/12/11 08:21:40;;;;;;;23.65;13.43;;;;;;;7.54;71.45;100612.41;5078210;28;20045;-81
2023/12/11 08:24:35;;;;;;;21.33;12.38;;;;;;;7.32;75.88;100601.41;5078755;28;20048;-81
2023/12/11 08:27:29;;;;;;;15.10;10.40;;;;;;;7.10;70.41;100602.06;5081696;28;20520;-82
2023/12/11 08:30:24;;;;;;;14.05;10.48;;;;;;;6.84;71.66;100590.03;5076663;28;20067;-81
2023/12/11 08:33:18;;;;;;;27.63;13.05;;;;;;;7.17;70.16;100590.84;5078400;28;20122;-81
2023/12/11 08:36:19;;;;;;;25.02;14.18;;;;;;;6.81;70.21;100614.91;5079160;28;20059;-82
2023/12/11 08:39:13;;;;;;;25.60;11.15;;;;;;;7.90;72.77;100636.13;5072512;28;20047;-80
2023/12/11 08:42:05;;;;;;;18.47;10.50;;;;;;;7.34;70.39;100615.44;5080143;28;20405;-81
2023/12/11 08:45:00;;;;;;;24.90;12.80;;;;;;;7.46;68.94;100582.53;5078041;28;20707;-81
2023/12/11 08:47:52;;;;;;;20.27;13.98;;;;;;;7.31;67.66;100564.66;5084997;28;20039;-82
2023/12/11 08:50:46;;;;;;;18.92;12.77;;;;;;;6.87;68.71;100559.69;5081107;28;20044;-80
2023/12/11 08:53:41;;;;;;;15.43;10.47;;;;;;;6.56;69.99;100564.75;5080877;28;20044;-80
2023/12/11 08:56:36;;;;;;;25.35;15.95;;;;;;;6.50;70.46;100575.94;5081813;28;20044;-80
2023/12/11 08:59:30;;;;;;;15.77;10.80;;;;;;;6.11;72.12;100582.34;5080904;28;20428;-80
2023/12/11 09:02:25;;;;;;;20.17;11.07;;;;;;;5.95;73.67;100581.72;5101285;28;20408;-80
2023/12/11 09:05:20;;;;;;;22.87;12.23;;;;;;;5.91;74.11;100596.09;5082234;28;20048;-81
2023/12/11 09:08:12;;;;;;;17.92;12.82;;;;;;;7.60;74.54;100605.00;5079156;28;20540;-81
2023/12/11 09:11:06;;;;;;;19.00;11.70;;;;;;;8.42;70.32;100613.19;5078597;28;20048;-80
2023/12/11 09:14:01;;;;;;;24.03;14.60;;;;;;;7.76;66.54;100622.56;5076952;28;20417;-81
2023/12/11 09:16:56;;;;;;;16.60;10.15;;;;;;;7.74;70.47;100611.22;5093539;28;20281;-82
2023/12/11 09:19:52;;;;;;;18.13;12.40;;;;;;;7.98;69.60;100611.03;5095142;28;20048;-81
2023/12/11 09:22:46;;;;;;;24.77;14.50;;;;;;;7.19;70.45;100626.50;5093508;28;20043;-81
2023/12/11 09:25:41;;;;;;;26.13;13.13;;;;;;;8.06;72.60;100615.78;5078846;28;20047;-81
2023/12/11 09:28:35;;;;;;;20.77;11.48;;;;;;;7.59;68.18;100623.13;5075980;28;20221;-81
2023/12/11 09:31:30;;;;;;;20.88;11.27;;;;;;;7.12;71.20;100636.88;5075109;28;20048;-81
2023/12/11 09:34:22;;;;;;;17.00;10.70;;;;;;;6.94;72.68;100640.41;5079297;28;20044;-81
2023/12/11 09:37:18;;;;;;;27.30;16.55;;;;;;;6.61;71.53;100643.03;5076908;28;20047;-81
2023/12/11 09:40:14;;;;;;;26.70;13.30;;;;;;;6.46;73.28;100635.13;5080425;28;20044;-81
2023/12/11 09:43:08;;;;;;;18.17;11.88;;;;;;;6.71;73.25;100636.66;5077497;28;20051;-81
2023/12/11 09:46:01;;;;;;;31.80;17.38;;;;;;;6.83;72.40;100632.47;5075515;28;20055;-81
2023/12/11 09:48:57;;;;;;;41.72;18.20;;;;;;;6.72;72.84;100630.19;5077488;28;20047;-81
2023/12/11 09:51:52;;;;;;;33.65;18.83;;;;;;;6.67;72.29;100658.06;5076383;28;20043;-81
2023/12/11 09:54:47;;;;;;;23.77;12.60;;;;;;;6.67;74.55;100674.28;5080016;28;20063;-81
2023/12/11 09:57:42;;;;;;;32.00;18.17;;;;;;;6.75;73.19;100665.56;5077377;28;20368;-81
2023/12/11 10:00:37;;;;;;;17.15;11.75;;;;;;;7.13;78.12;100636.59;5074330;28;20048;-81
2023/12/11 10:03:29;;;;;;;21.15;11.95;;;;;;;7.55;71.84;100624.84;5077860;28;20067;-81
2023/12/11 10:06:25;;;;;;;26.83;15.25;;;;;;;7.52;70.67;100606.47;5076555;28;20043;-81
2023/12/11 10:09:35;;;;;;;29.17;16.40;;;;;;;7.69;70.32;100603.19;5079896;28;20056;-81
2023/12/11 10:12:40;;;;;;;30.60;17.17;;;;;;;7.29;70.42;100588.50;5076831;28;20051;-81
2023/12/11 10:15:36;;;;;;;25.00;15.43;;;;;;;7.77;72.15;100588.19;5079480;28;20051;-81
2023/12/11 10:18:28;;;;;;;33.28;18.48;;;;;;;8.70;65.32;100598.47;5078399;28;20040;-82
2023/12/11 10:21:20;;;;;;;26.45;17.23;;;;;;;7.80;67.80;100609.22;5071123;28;20040;-82
2023/12/11 10:24:14;;;;;;;33.10;19.55;;;;;;;7.56;69.54;100626.44;5069968;28;20047;-81
2023/12/11 10:27:06;;;;;;;33.55;18.45;;;;;;;7.49;71.11;100619.78;5068546;28;20043;-82
2023/12/11 10:30:27;;;;;;;32.03;19.02;;;;;;;7.32;70.94;100604.91;5069158;28;20051;-82
2023/12/11 10:33:21;;;;;;;32.33;17.83;;;;;;;7.76;72.48;100592.00;5071692;28;20535;-82
2023/12/11 10:36:19;;;;;;;30.52;17.15;;;;;;;8.27;69.18;100587.19;5076350;28;20047;-82
2023/12/11 10:39:11;;;;;;;28.17;18.55;;;;;;;8.35;68.32;100572.13;5065804;28;20044;-81
2023/12/11 10:42:16;;;;;;;31.63;17.40;;;;;;;8.02;68.64;100580.38;5071809;28;20051;-81
2023/12/11 10:45:11;;;;;;;20.70;13.35;;;;;;;7.92;69.30;100580.59;5069891;28;20044;-81
2023/12/11 10:48:02;;;;;;;;;;;;;;;7.94;69.74;100580.25;5075961;28;20043;-81
2023/12/11 10:50:53;;;;;;;31.13;18.13;;;;;;;7.91;69.54;100561.94;5079992;28;19916;-81
2023/12/11 10:53:48;;;;;;;27.98;17.20;;;;;;;7.81;70.11;100545.88;5072992;28;20059;-81
2023/12/11 10:56:41;;;;;;;28.40;17.00;;;;;;;7.63;71.26;100532.13;5075330;28;20063;-81
2023/12/11 10:59:33;;;;;;;;;;;;;;;7.53;72.23;100529.63;5080132;28;20055;-81
2023/12/11 11:02:29;;;;;;;25.98;16.52;;;;;;;7.54;71.83;100506.88;5066367;28;20585;-81
2023/12/11 11:05:27;;;;;;;26.15;17.35;;;;;;;7.62;71.46;100511.59;5078455;28;20044;-82
2023/12/11 11:08:37;;;;;;;33.58;19.50;;;;;;;7.50;70.89;100514.00;5075309;28;20048;-81
2023/12/11 11:11:35;;;;;;;28.85;17.33;;;;;;;7.51;72.01;100510.19;5078205;28;20051;-81
2023/12/11 11:14:47;;;;;;;30.35;18.15;;;;;;;7.62;71.47;100524.31;5078683;28;20417;-81
2023/12/11 11:18:04;;;;;;;31.70;20.33;;;;;;;7.74;71.83;100509.19;5069961;28;20068;-81
2023/12/11 11:21:15;;;;;;;27.48;18.00;;;;;;;7.88;73.88;100487.50;5079597;28;20051;-82
2023/12/11 11:24:33;;;;;;;27.70;18.60;;;;;;;7.68;71.93;100488.72;5078723;28;20047;-81
2023/12/11 11:27:43;;;;;;;22.50;13.50;;;;;;;7.78;71.22;100476.09;5074713;28;20532;-81
2023/12/11 11:30:53;;;;;;;26.70;16.30;;;;;;;7.55;72.75;100476.03;5077979;28;20060;-82
2023/12/11 11:33:50;;;;;;;30.92;18.10;;;;;;;7.62;73.14;100486.41;5076612;28;20048;-81
2023/12/11 11:36:51;;;;;;;30.08;19.65;;;;;;;7.74;72.35;100476.72;5076921;28;20426;-81
2023/12/11 11:40:02;;;;;;;29.02;17.13;;;;;;;7.62;73.10;100495.34;5079554;28;20066;-81
2023/12/11 11:42:57;;;;;;;29.67;17.83;;;;;;;7.68;73.08;100472.50;5081574;28;20071;-81
2023/12/11 11:45:58;;;;;;;29.23;18.75;;;;;;;7.59;72.72;100463.50;5081017;28;20055;-82
2023/12/11 11:48:52;;;;;;;30.17;17.38;;;;;;;7.62;72.94;100451.25;5076393;28;20067;-82
2023/12/11 11:51:47;;;;;;;30.38;20.05;;;;;;;7.73;72.91;100437.22;5080767;28;20098;-81
2023/12/11 11:54:44;;;;;;;30.73;19.17;;;;;;;7.62;72.93;100449.34;5079145;28;20048;-81
2023/12/11 11:57:39;;;;;;;33.58;20.52;;;;;;;7.55;73.33;100464.41;5079156;28;20048;-81
2023/12/11 12:00:34;;;;;;;36.13;20.97;;;;;;;7.53;73.73;100456.56;5075901;28;20052;-82
2023/12/11 12:03:26;;;;;;;29.50;19.58;;;;;;;7.62;74.05;100454.75;5077784;28;20679;-82
2023/12/11 12:06:20;;;;;;;33.50;19.27;;;;;;;7.52;74.03;100483.91;5081612;28;20044;-82
2023/12/11 12:09:18;;;;;;;30.60;20.27;;;;;;;7.58;74.30;100480.00;5078496;28;20036;-82
2023/12/11 12:12:18;;;;;;;33.58;19.92;;;;;;;7.61;73.93;100461.28;5081716;28;20048;-83
2023/12/11 12:15:10;;;;;;;30.73;19.70;;;;;;;7.67;73.51;100464.66;5079643;28;20650;-82
2023/12/11 12:18:12;;;;;;;33.28;19.75;;;;;;;7.64;73.70;100468.81;5072769;28;20555;-81
2023/12/11 12:21:09;;;;;;;29.45;18.58;;;;;;;7.84;73.46;100469.47;5080103;28;20059;-81
2023/12/11 12:24:09;;;;;;;36.10;22.73;;;;;;;7.81;74.23;100486.34;5077737;28;20044;-81
2023/12/11 12:27:06;;;;;;;30.77;19.90;;;;;;;8.39;72.95;100465.56;5077089;28;20508;-82
2023/12/11 12:29:56;;;;;;;33.95;21.33;;;;;;;8.36;71.87;100460.78;5079169;28;20333;-82
2023/12/11 12:32:52;;;;;;;32.97;20.33;;;;;;;8.14;72.90;100468.81;5080703;28;20154;-81
2023/12/11 12:35:49;;;;;;;26.23;17.20;;;;;;;8.08;73.35;100464.63;5081171;28;20508;-83
2023/12/11 12:38:38;;;;;;;46.47;24.00;;;;;;;7.81;73.64;100451.94;5080228;28;20060;-82
2023/12/11 12:41:33;;;;;;;34.17;21.75;;;;;;;7.72;74.82;100446.44;5082562;28;20055;-83
2023/12/11 12:44:28;;;;;;;37.15;21.88;;;;;;;7.95;74.96;100441.09;5078137;28;20044;-82
2023/12/11 12:47:20;;;;;;;26.97;16.77;;;;;;;7.82;74.22;100433.81;5064065;28;20043;-82
2023/12/11 12:50:24;;;;;;;36.67;21.23;;;;;;;7.82;74.76;100422.97;5079973;28;20270;-82
2023/12/11 12:53:19;;;;;;;30.63;20.48;;;;;;;7.82;74.45;100433.81;5077479;28;20047;-82
2023/12/11 12:56:20;;;;;;;35.97;20.47;;;;;;;7.70;74.73;100426.19;5081252;28;20047;-82
2023/12/11 12:59:15;;;;;;;29.90;20.35;;;;;;;7.80;74.86;100430.59;5078211;28;20293;-82
2023/12/11 13:02:09;;;;;;;23.40;13.95;;;;;;;7.90;75.55;100438.50;5081939;28;20051;-82
2023/12/11 13:05:04;;;;;;;30.80;19.67;;;;;;;7.83;75.15;100447.00;5080228;28;20051;-82
2023/12/11 13:08:02;;;;;;;23.67;15.47;;;;;;;7.94;75.05;100453.00;5077236;28;20048;-82
2023/12/11 13:11:00;;;;;;;29.55;19.60;;;;;;;7.89;74.34;100455.84;5078239;28;20281;-82
2023/12/11 13:14:01;;;;;;;26.55;17.98;;;;;;;7.91;75.29;100449.03;5078043;28;20047;-82
2023/12/11 13:16:55;;;;;;;29.50;18.75;;;;;;;7.79;75.17;100434.41;5080642;28;20302;-82
2023/12/11 13:19:50;;;;;;;35.87;20.73;;;;;;;7.77;74.72;100440.13;5077876;28;20047;-82
2023/12/11 13:22:44;;;;;;;24.70;15.63;;;;;;;7.83;75.38;100449.72;5080713;28;20055;-82
2023/12/11 13:25:39;;;;;;;26.83;18.87;;;;;;;7.80;75.96;100438.72;5079933;28;20051;-82